createdAt,value
2016-11-03T00:00:00.351Z,98.1
2016-11-03T00:01:09.362Z,98.57
2016-11-03T00:02:18.054Z,98.57
2016-11-03T00:03:26.753Z,98.47
2016-11-03T00:04:35.490Z,98.47
2016-11-03T00:05:44.181Z,98.75
2016-11-03T00:06:52.910Z,98.19
2016-11-03T00:08:01.949Z,97.91
2016-11-03T00:09:10.647Z,97.53
2016-11-03T00:10:19.377Z,97.91
2016-11-03T00:11:28.064Z,98.1
2016-11-03T00:12:36.760Z,98.1
2016-11-03T00:13:45.446Z,97.91
2016-11-03T00:14:54.176Z,97.91
2016-11-03T00:16:02.872Z,98.28
2016-11-03T00:17:11.563Z,98.85
2016-11-03T00:18:20.256Z,98.57
2016-11-03T00:19:28.952Z,98.38
2016-11-03T00:20:37.647Z,98.85
2016-11-03T00:21:46.338Z,98.66
2016-11-03T00:22:55.031Z,97.95
2016-11-03T00:24:03.723Z,97.38
2016-11-03T00:25:12.412Z,97.19
2016-11-03T00:26:21.102Z,97.76
2016-11-03T00:27:29.800Z,98.42
2016-11-03T00:28:38.500Z,99.27
2016-11-03T00:29:47.195Z,99.18
2016-11-03T00:30:55.886Z,99.18
2016-11-03T00:32:04.580Z,99.08
2016-11-03T00:33:13.265Z,99.27
2016-11-03T00:34:21.955Z,99.37
2016-11-03T00:35:30.648Z,99.46
2016-11-03T00:36:39.337Z,99.99
2016-11-03T00:37:48.025Z,99.27
2016-11-03T00:38:56.728Z,98.9
2016-11-03T00:40:05.446Z,98.52
2016-11-03T00:41:14.143Z,98.71
2016-11-03T00:42:22.834Z,98.8
2016-11-03T00:43:31.533Z,98.9
2016-11-03T00:44:40.224Z,98.61
2016-11-03T00:45:48.917Z,99.08
2016-11-03T00:46:57.929Z,99.37
2016-11-03T00:48:06.627Z,99.18
2016-11-03T00:49:15.319Z,98.9
2016-11-03T00:50:24.016Z,98.71
2016-11-03T00:51:32.706Z,98.8
2016-11-03T00:52:41.394Z,98.33
2016-11-03T00:53:50.086Z,98.52
2016-11-03T00:54:58.786Z,98.71
2016-11-03T00:56:07.502Z,98.8
2016-11-03T00:57:16.211Z,99.27
2016-11-03T00:58:24.899Z,98.99
2016-11-03T00:59:33.593Z,99.55
2016-11-03T01:00:42.324Z,99.99
2016-11-03T01:01:51.013Z,99.08
2016-11-03T01:02:59.701Z,99.55
2016-11-03T01:04:08.390Z,99.08
2016-11-03T01:05:17.094Z,99.37
2016-11-03T01:06:25.783Z,99.27
2016-11-03T01:07:34.477Z,99.18
2016-11-03T01:08:43.164Z,98.71
2016-11-03T01:09:51.854Z,98.9
2016-11-03T01:11:00.541Z,99.08
2016-11-03T01:12:09.231Z,99.84
2016-11-03T01:13:17.930Z,99.18
2016-11-03T01:14:26.625Z,99.18
2016-11-03T01:15:35.317Z,99.08
2016-11-03T01:16:44.005Z,99.55
2016-11-03T01:17:52.689Z,99.84
2016-11-03T01:19:01.378Z,99.99
2016-11-03T01:20:10.392Z,99.99
2016-11-03T01:21:19.087Z,99.99
2016-11-03T01:22:28.093Z,99.99
2016-11-03T01:23:36.823Z,99.99
2016-11-03T01:24:45.513Z,99.99
2016-11-03T01:25:54.208Z,99.99
2016-11-03T01:27:03.210Z,99.99
2016-11-03T01:28:11.903Z,99.99
2016-11-03T01:29:20.604Z,99.99
2016-11-03T01:30:29.295Z,99.99
2016-11-03T01:31:38.025Z,99.99
2016-11-03T01:32:46.725Z,99.99
2016-11-03T01:33:55.421Z,99.99
2016-11-03T01:35:04.111Z,99.99
2016-11-03T01:36:12.806Z,99.99
2016-11-03T01:37:21.521Z,99.99
2016-11-03T01:38:30.210Z,99.99
2016-11-03T01:39:38.997Z,99.99
2016-11-03T01:40:47.693Z,99.93
2016-11-03T01:41:56.391Z,99.99
2016-11-03T01:43:05.393Z,99.84
2016-11-03T01:44:14.086Z,99.46
2016-11-03T01:45:22.776Z,99.27
2016-11-03T01:46:31.470Z,99.46
2016-11-03T01:47:40.162Z,99.18
2016-11-03T01:48:48.852Z,99.65
2016-11-03T01:49:57.543Z,99.08
2016-11-03T01:51:06.234Z,99.37
2016-11-03T01:52:14.934Z,99.65
2016-11-03T01:53:23.659Z,99.93
2016-11-03T01:54:32.354Z,99.99
2016-11-03T01:55:41.039Z,98.61
2016-11-03T01:56:49.731Z,99.84
2016-11-03T01:57:58.419Z,99.93
2016-11-03T01:59:07.115Z,99.99
2016-11-03T02:00:15.839Z,99.55
2016-11-03T02:01:24.567Z,99.18
2016-11-03T02:02:33.260Z,98.9
2016-11-03T02:03:41.952Z,99.55
2016-11-03T02:04:50.643Z,99.55
2016-11-03T02:05:59.658Z,99.99
2016-11-03T02:07:08.361Z,99.55
2016-11-03T02:08:17.057Z,99.99
2016-11-03T02:09:25.786Z,99.99
2016-11-03T02:10:34.478Z,99.99
2016-11-03T02:11:43.166Z,99.99
2016-11-03T02:12:51.854Z,99.99
2016-11-03T02:14:00.547Z,99.99
2016-11-03T02:15:09.233Z,99.99
2016-11-03T02:16:17.927Z,99.99
2016-11-03T02:17:26.647Z,99.99
2016-11-03T02:18:35.341Z,99.99
2016-11-03T02:19:44.027Z,99.99
2016-11-03T02:20:52.719Z,99.99
2016-11-03T02:22:01.725Z,99.99
2016-11-03T02:23:10.730Z,99.99
2016-11-03T02:24:19.422Z,99.99
2016-11-03T02:25:28.114Z,99.99
2016-11-03T02:26:36.803Z,99.99
2016-11-03T02:27:45.495Z,99.99
2016-11-03T02:28:54.186Z,99.99
2016-11-03T02:30:03.189Z,99.69
2016-11-03T02:31:11.886Z,99.99
2016-11-03T02:32:20.582Z,99.99
2016-11-03T02:33:29.296Z,99.99
2016-11-03T02:34:37.986Z,99.99
2016-11-03T02:35:46.714Z,99.99
2016-11-03T02:36:55.407Z,99.99
2016-11-03T02:38:04.100Z,99.99
2016-11-03T02:39:12.821Z,99.99
2016-11-03T02:40:21.586Z,99.79
2016-11-03T02:41:30.281Z,99.69
2016-11-03T02:42:38.969Z,99.99
2016-11-03T02:43:47.657Z,99.99
2016-11-03T02:44:56.664Z,99.99
2016-11-03T02:46:05.354Z,99.99
2016-11-03T02:47:14.045Z,99.99
2016-11-03T02:48:22.744Z,99.99
2016-11-03T02:49:31.431Z,99.99
2016-11-03T02:50:40.120Z,99.99
2016-11-03T02:51:48.807Z,99.99
2016-11-03T02:52:57.493Z,99.99
2016-11-03T02:54:06.184Z,99.99
2016-11-03T02:55:14.876Z,99.99
2016-11-03T02:56:23.570Z,99.99
2016-11-03T02:57:32.574Z,99.99
2016-11-03T02:58:41.266Z,99.99
2016-11-03T02:59:49.956Z,99.99
2016-11-03T03:00:58.648Z,99.99
2016-11-03T03:02:07.345Z,99.99
2016-11-03T03:03:16.035Z,99.99
2016-11-03T03:04:24.725Z,99.99
2016-11-03T03:05:33.415Z,99.99
2016-11-03T03:06:42.108Z,99.99
2016-11-03T03:07:50.797Z,99.99
2016-11-03T03:08:59.482Z,99.99
2016-11-03T03:10:08.174Z,99.99
2016-11-03T03:11:16.872Z,99.99
2016-11-03T03:12:25.567Z,99.99
2016-11-03T03:13:34.258Z,99.99
2016-11-03T03:14:42.948Z,99.99
2016-11-03T03:15:51.638Z,99.99
2016-11-03T03:17:00.331Z,99.99
2016-11-03T03:18:09.023Z,99.99
2016-11-03T03:19:17.708Z,99.99
2016-11-03T03:20:26.403Z,99.99
2016-11-03T03:21:35.128Z,99.99
2016-11-03T03:22:43.815Z,99.99
2016-11-03T03:23:52.505Z,99.99
2016-11-03T03:25:01.206Z,99.99
2016-11-03T03:26:09.899Z,99.99
2016-11-03T03:27:18.604Z,99.99
2016-11-03T03:28:27.292Z,99.99
2016-11-03T03:29:35.988Z,99.99
2016-11-03T03:30:44.675Z,99.99
2016-11-03T03:31:53.363Z,99.99
2016-11-03T03:33:02.101Z,99.99
2016-11-03T03:34:10.797Z,99.99
2016-11-03T03:35:19.489Z,99.99
2016-11-03T03:36:28.178Z,99.99
2016-11-03T03:37:37.182Z,99.99
2016-11-03T03:38:45.868Z,99.99
2016-11-03T03:39:54.568Z,99.99
2016-11-03T03:41:03.261Z,99.99
2016-11-03T03:42:11.948Z,99.99
2016-11-03T03:43:20.636Z,99.99
2016-11-03T03:44:29.327Z,99.99
2016-11-03T03:45:38.042Z,99.99
2016-11-03T03:46:46.731Z,99.99
2016-11-03T03:47:55.418Z,99.99
2016-11-03T03:49:04.110Z,99.99
2016-11-03T03:50:12.801Z,99.99
2016-11-03T03:51:21.504Z,99.99
2016-11-03T03:52:30.191Z,99.99
2016-11-03T03:53:38.883Z,99.99
2016-11-03T03:54:47.576Z,99.99
2016-11-03T03:55:56.274Z,99.99
2016-11-03T03:57:04.979Z,99.99
2016-11-03T03:58:13.672Z,99.99
2016-11-03T03:59:22.366Z,99.99
2016-11-03T04:00:31.059Z,99.99
2016-11-03T04:01:39.749Z,99.99
2016-11-03T04:02:48.439Z,99.99
2016-11-03T04:03:57.133Z,99.99
2016-11-03T04:05:05.823Z,99.99
2016-11-03T04:06:14.518Z,99.99
2016-11-03T04:07:23.206Z,99.99
2016-11-03T04:08:31.903Z,99.99
2016-11-03T04:09:40.648Z,99.99
2016-11-03T04:10:49.341Z,99.99
2016-11-03T04:11:58.025Z,99.99
2016-11-03T04:13:06.713Z,99.99
2016-11-03T04:14:15.713Z,99.99
2016-11-03T04:15:24.416Z,99.99
2016-11-03T04:16:33.103Z,99.99
2016-11-03T04:17:41.794Z,99.99
2016-11-03T04:18:50.483Z,99.99
2016-11-03T04:19:59.171Z,99.99
2016-11-03T04:21:07.857Z,99.99
2016-11-03T04:22:16.551Z,99.99
2016-11-03T04:23:25.241Z,99.99
2016-11-03T04:24:33.936Z,99.99
2016-11-03T04:25:42.645Z,99.99
2016-11-03T04:26:51.361Z,99.99
2016-11-03T04:28:00.048Z,99.99
2016-11-03T04:29:08.739Z,99.99
2016-11-03T04:30:17.430Z,99.99
2016-11-03T04:31:26.228Z,99.99
2016-11-03T04:32:34.925Z,99.99
2016-11-03T04:33:43.611Z,99.99
2016-11-03T04:34:52.294Z,99.99
2016-11-03T04:36:01.053Z,99.99
2016-11-03T04:37:09.746Z,99.99
2016-11-03T04:38:18.479Z,99.99
2016-11-03T04:39:27.168Z,99.99
2016-11-03T04:40:35.860Z,99.99
2016-11-03T04:41:44.553Z,99.99
2016-11-03T04:42:53.253Z,99.99
2016-11-03T04:44:01.941Z,99.99
2016-11-03T04:45:10.628Z,99.99
2016-11-03T04:46:19.321Z,99.99
2016-11-03T04:47:28.011Z,99.99
2016-11-03T04:48:36.984Z,99.99
2016-11-03T04:49:45.688Z,99.99
2016-11-03T04:50:54.379Z,99.99
2016-11-03T04:52:03.067Z,99.99
2016-11-03T04:53:12.075Z,99.99
2016-11-03T04:54:20.767Z,99.99
2016-11-03T04:55:29.491Z,99.99
2016-11-03T04:56:38.181Z,99.99
2016-11-03T04:57:46.868Z,99.99
2016-11-03T04:58:55.551Z,99.99
2016-11-03T05:00:04.240Z,99.99
2016-11-03T05:01:12.940Z,99.99
2016-11-03T05:02:21.629Z,99.99
2016-11-03T05:03:30.323Z,99.99
2016-11-03T05:04:39.017Z,99.99
2016-11-03T05:05:47.703Z,99.99
2016-11-03T05:06:56.395Z,99.99
2016-11-03T05:08:05.090Z,99.99
2016-11-03T05:09:13.782Z,99.69
2016-11-03T05:10:22.501Z,99.22
2016-11-03T05:11:31.186Z,98.94
2016-11-03T05:12:39.911Z,98.75
2016-11-03T05:13:48.599Z,99.51
2016-11-03T05:14:57.287Z,99.69
2016-11-03T05:16:05.976Z,99.99
2016-11-03T05:17:14.669Z,99.51
2016-11-03T05:18:23.363Z,99.99
2016-11-03T05:19:32.056Z,99.99
2016-11-03T05:20:40.751Z,99.99
2016-11-03T05:21:49.451Z,99.51
2016-11-03T05:22:58.144Z,99.69
2016-11-03T05:24:06.877Z,99.79
2016-11-03T05:25:15.591Z,99.69
2016-11-03T05:26:24.312Z,99.99
2016-11-03T05:27:33.005Z,99.79
2016-11-03T05:28:41.706Z,99.99
2016-11-03T05:29:50.397Z,99.99
2016-11-03T05:30:59.093Z,99.99
2016-11-03T05:32:07.785Z,99.99
2016-11-03T05:33:16.475Z,99.99
2016-11-03T05:34:25.475Z,99.51
2016-11-03T05:35:34.166Z,99.99
2016-11-03T05:36:42.856Z,99.51
2016-11-03T05:37:51.549Z,99.41
2016-11-03T05:39:00.268Z,99.41
2016-11-03T05:40:08.966Z,99.69
2016-11-03T05:41:17.664Z,99.88
2016-11-03T05:42:26.350Z,99.41
2016-11-03T05:43:35.354Z,99.88
2016-11-03T05:44:44.049Z,99.69
2016-11-03T05:45:52.735Z,99.99
2016-11-03T05:47:01.456Z,99.99
2016-11-03T05:48:10.144Z,99.99
2016-11-03T05:49:18.833Z,99.99
2016-11-03T05:50:27.521Z,99.99
2016-11-03T05:51:36.210Z,99.99
2016-11-03T05:52:44.894Z,99.99
2016-11-03T05:53:53.579Z,99.99
2016-11-03T05:55:02.261Z,99.99
2016-11-03T05:56:10.952Z,99.99
2016-11-03T05:57:19.648Z,99.99
2016-11-03T05:58:28.335Z,99.99
2016-11-03T05:59:37.030Z,99.99
2016-11-03T06:00:45.747Z,99.99
2016-11-03T06:01:54.445Z,99.99
2016-11-03T06:03:03.140Z,99.99
2016-11-03T06:04:11.833Z,99.99
2016-11-03T06:05:20.528Z,99.99
2016-11-03T06:06:29.219Z,99.99
2016-11-03T06:07:37.906Z,99.99
2016-11-03T06:08:46.601Z,99.99
2016-11-03T06:09:55.291Z,99.99
2016-11-03T06:11:03.987Z,99.99
2016-11-03T06:12:12.687Z,99.99
2016-11-03T06:13:21.381Z,99.99
2016-11-03T06:14:30.069Z,99.99
2016-11-03T06:15:38.766Z,99.99
2016-11-03T06:16:47.450Z,99.99
2016-11-03T06:17:56.137Z,99.99
2016-11-03T06:19:04.827Z,99.99
2016-11-03T06:20:13.547Z,99.99
2016-11-03T06:21:22.242Z,99.99
2016-11-03T06:22:30.931Z,99.99
2016-11-03T06:23:39.623Z,99.99
2016-11-03T06:24:48.323Z,99.99
2016-11-03T06:25:57.011Z,99.99
2016-11-03T06:27:05.747Z,99.99
2016-11-03T06:28:14.758Z,99.99
2016-11-03T06:29:23.454Z,99.99
2016-11-03T06:30:32.145Z,99.99
2016-11-03T06:31:40.841Z,99.99
2016-11-03T06:32:49.536Z,99.99
2016-11-03T06:33:58.226Z,99.88
2016-11-03T06:35:06.918Z,99.98
2016-11-03T06:36:15.611Z,99.69
2016-11-03T06:37:24.307Z,99.79
2016-11-03T06:38:33.032Z,99.51
2016-11-03T06:39:41.718Z,99.69
2016-11-03T06:40:50.447Z,99.88
2016-11-03T06:41:59.144Z,99.88
2016-11-03T06:43:07.885Z,99.99
2016-11-03T06:44:16.837Z,99.99
2016-11-03T06:45:25.849Z,99.99
2016-11-03T06:46:34.540Z,99.98
2016-11-03T06:47:43.231Z,99.99
2016-11-03T06:48:51.921Z,99.99
2016-11-03T06:50:00.644Z,99.99
2016-11-03T06:51:09.343Z,99.99
2016-11-03T06:52:18.033Z,99.99
2016-11-03T06:53:26.719Z,99.99
2016-11-03T06:54:35.436Z,99.98
2016-11-03T06:55:44.134Z,99.99
2016-11-03T06:56:52.825Z,99.99
2016-11-03T06:58:01.549Z,99.99
2016-11-03T06:59:10.248Z,99.84
2016-11-03T07:00:18.936Z,99.55
2016-11-03T07:01:27.686Z,99.18
2016-11-03T07:02:36.550Z,99.08
2016-11-03T07:03:45.244Z,99.27
2016-11-03T07:04:53.939Z,98.99
2016-11-03T07:06:02.639Z,99.46
2016-11-03T07:07:11.336Z,99.46
2016-11-03T07:08:20.027Z,99.74
2016-11-03T07:09:28.715Z,99.74
2016-11-03T07:10:37.441Z,99.18
2016-11-03T07:11:46.146Z,99.55
2016-11-03T07:12:54.838Z,99.37
2016-11-03T07:14:03.529Z,99.93
2016-11-03T07:15:12.227Z,99.27
2016-11-03T07:16:20.918Z,99.18
2016-11-03T07:17:29.607Z,98.9
2016-11-03T07:18:38.296Z,98.14
2016-11-03T07:19:46.982Z,98.71
2016-11-03T07:20:55.711Z,98.71
2016-11-03T07:22:04.409Z,98.56
2016-11-03T07:23:13.128Z,98.94
2016-11-03T07:24:21.813Z,99.18
2016-11-03T07:25:30.509Z,99.13
2016-11-03T07:26:39.198Z,99.41
2016-11-03T07:27:47.891Z,99.51
2016-11-03T07:28:56.576Z,99.79
2016-11-03T07:30:05.268Z,99.69
2016-11-03T07:31:14.268Z,99.69
2016-11-03T07:32:22.958Z,99.32
2016-11-03T07:33:31.653Z,99.46
2016-11-03T07:34:40.381Z,99.08
2016-11-03T07:35:49.073Z,98.61
2016-11-03T07:36:57.763Z,98.42
2016-11-03T07:38:06.458Z,98.71
2016-11-03T07:39:15.145Z,97.57
2016-11-03T07:40:23.844Z,97.95
2016-11-03T07:41:32.843Z,97.19
2016-11-03T07:42:41.539Z,97.19
2016-11-03T07:43:50.225Z,97.1
2016-11-03T07:44:58.928Z,97.48
2016-11-03T07:46:07.616Z,97.48
2016-11-03T07:47:16.307Z,97.85
2016-11-03T07:48:24.999Z,97.95
2016-11-03T07:49:34.040Z,97.85
2016-11-03T07:50:42.727Z,97.85
2016-11-03T07:51:51.423Z,97.95
2016-11-03T07:53:00.116Z,97.57
2016-11-03T07:54:08.816Z,98.04
2016-11-03T07:55:17.506Z,96.91
2016-11-03T07:56:26.198Z,97.67
2016-11-03T07:57:34.890Z,97.29
2016-11-03T07:58:43.577Z,97.29
2016-11-03T07:59:52.270Z,97.1
2016-11-03T08:01:00.958Z,96.72
2016-11-03T08:02:09.647Z,96.91
2016-11-03T08:03:18.348Z,96.53
2016-11-03T08:04:27.042Z,96.06
2016-11-03T08:05:35.733Z,95.78
2016-11-03T08:06:44.465Z,95.4
2016-11-03T08:07:53.155Z,95.68
2016-11-03T08:09:01.879Z,95.68
2016-11-03T08:10:10.574Z,94.74
2016-11-03T08:11:19.580Z,95.12
2016-11-03T08:12:28.584Z,94.65
2016-11-03T08:13:37.290Z,95.4
2016-11-03T08:14:46.029Z,94.93
2016-11-03T08:15:54.722Z,95.68
2016-11-03T08:17:03.456Z,95.68
2016-11-03T08:18:12.148Z,95.4
2016-11-03T08:19:20.843Z,94.46
2016-11-03T08:20:29.534Z,94.93
2016-11-03T08:21:38.242Z,94.93
2016-11-03T08:22:46.930Z,94.84
2016-11-03T08:23:55.627Z,94.27
2016-11-03T08:25:04.339Z,94.08
2016-11-03T08:26:13.038Z,94.27
2016-11-03T08:27:21.734Z,94.55
2016-11-03T08:28:30.429Z,94.18
2016-11-03T08:29:39.156Z,94.46
2016-11-03T08:30:47.851Z,94.18
2016-11-03T08:31:56.541Z,94.27
2016-11-03T08:33:05.247Z,94.36
2016-11-03T08:34:14.309Z,94.51
2016-11-03T08:35:23.004Z,93.94
2016-11-03T08:36:31.705Z,92.71
2016-11-03T08:37:40.395Z,92.14
2016-11-03T08:38:49.101Z,91.96
2016-11-03T08:39:57.801Z,92.14
2016-11-03T08:41:06.805Z,91.96
2016-11-03T08:42:15.502Z,92.43
2016-11-03T08:43:24.192Z,92.43
2016-11-03T08:44:33.215Z,92.9
2016-11-03T08:45:41.907Z,92.61
2016-11-03T08:46:50.636Z,92.99
2016-11-03T08:47:59.322Z,92.8
2016-11-03T08:49:08.020Z,92.43
2016-11-03T08:50:16.716Z,92.52
2016-11-03T08:51:25.436Z,92.43
2016-11-03T08:52:34.159Z,93.28
2016-11-03T08:53:42.845Z,93.28
2016-11-03T08:54:51.534Z,92.52
2016-11-03T08:56:00.231Z,91.2
2016-11-03T08:57:08.924Z,91.96
2016-11-03T08:58:17.619Z,91.2
2016-11-03T08:59:26.308Z,91.11
2016-11-03T09:00:35.005Z,91.86
2016-11-03T09:01:43.696Z,91.2
2016-11-03T09:02:52.387Z,91.77
2016-11-03T09:04:01.083Z,92.05
2016-11-03T09:05:09.781Z,91.11
2016-11-03T09:06:18.477Z,91.86
2016-11-03T09:07:27.169Z,91.39
2016-11-03T09:08:35.865Z,91.3
2016-11-03T09:09:44.564Z,91.11
2016-11-03T09:10:53.249Z,91.2
2016-11-03T09:12:01.949Z,91.77
2016-11-03T09:13:10.652Z,92.05
2016-11-03T09:14:19.359Z,92.14
2016-11-03T09:15:28.371Z,91.96
2016-11-03T09:16:37.066Z,91.67
2016-11-03T09:17:45.807Z,91.67
2016-11-03T09:18:54.497Z,91.96
2016-11-03T09:20:03.188Z,92.52
2016-11-03T09:21:11.913Z,91.96
2016-11-03T09:22:20.600Z,92.24
2016-11-03T09:23:29.294Z,91.39
2016-11-03T09:24:37.988Z,91.11
2016-11-03T09:25:46.683Z,91.49
2016-11-03T09:26:55.369Z,91.49
2016-11-03T09:28:04.066Z,91.11
2016-11-03T09:29:12.792Z,90.82
2016-11-03T09:30:21.482Z,91.11
2016-11-03T09:31:30.167Z,91.3
2016-11-03T09:32:38.895Z,90.35
2016-11-03T09:33:47.583Z,90.07
2016-11-03T09:34:56.271Z,89.97
2016-11-03T09:36:04.959Z,89.83
2016-11-03T09:37:13.659Z,89.83
2016-11-03T09:38:22.353Z,88.46
2016-11-03T09:39:31.073Z,88.84
2016-11-03T09:40:39.771Z,89.59
2016-11-03T09:41:48.461Z,90.45
2016-11-03T09:42:57.151Z,90.73
2016-11-03T09:44:05.848Z,89.92
2016-11-03T09:45:14.539Z,89.54
2016-11-03T09:46:23.244Z,88.89
2016-11-03T09:47:31.977Z,88.32
2016-11-03T09:48:40.706Z,88.6
2016-11-03T09:49:49.395Z,89.07
2016-11-03T09:50:58.089Z,88.79
2016-11-03T09:52:06.782Z,88.89
2016-11-03T09:53:15.794Z,88.7
2016-11-03T09:54:24.484Z,88.79
2016-11-03T09:55:33.179Z,87.37
2016-11-03T09:56:41.875Z,87.47
2016-11-03T09:57:50.587Z,88.13
2016-11-03T09:58:59.281Z,88.42
2016-11-03T10:00:07.981Z,88.79
2016-11-03T10:01:16.674Z,88.98
2016-11-03T10:02:25.366Z,88.98
2016-11-03T10:03:34.060Z,87.85
2016-11-03T10:04:42.752Z,87.47
2016-11-03T10:05:51.761Z,88.13
2016-11-03T10:07:00.460Z,87.47
2016-11-03T10:08:09.161Z,87.18
2016-11-03T10:09:17.862Z,86.62
2016-11-03T10:10:26.550Z,85.77
2016-11-03T10:11:35.248Z,85.86
2016-11-03T10:12:43.939Z,86.33
2016-11-03T10:13:52.643Z,86.24
2016-11-03T10:15:01.338Z,85.68
2016-11-03T10:16:10.033Z,85.2
2016-11-03T10:17:18.725Z,84.45
2016-11-03T10:18:27.418Z,84.35
2016-11-03T10:19:36.106Z,84.26
2016-11-03T10:20:44.796Z,85.68
2016-11-03T10:21:53.484Z,84.3
2016-11-03T10:23:02.176Z,83.17
2016-11-03T10:24:10.910Z,83.17
2016-11-03T10:25:19.598Z,82.98
2016-11-03T10:26:28.296Z,82.79
2016-11-03T10:27:37.130Z,82.88
2016-11-03T10:28:45.823Z,82.79
2016-11-03T10:29:54.514Z,81.93
2016-11-03T10:31:03.206Z,80.99
2016-11-03T10:32:11.907Z,80.14
2016-11-03T10:33:20.926Z,79.99
2016-11-03T10:34:29.624Z,79.8
2016-11-03T10:35:38.367Z,78.67
2016-11-03T10:36:47.073Z,77.44
2016-11-03T10:37:55.804Z,76.78
2016-11-03T10:39:04.498Z,76.15
2016-11-03T10:40:13.197Z,75.59
2016-11-03T10:41:21.898Z,75.49
2016-11-03T10:42:30.592Z,74.17
2016-11-03T10:43:39.282Z,73.03
2016-11-03T10:44:48.047Z,73.22
2016-11-03T10:45:56.742Z,74.07
2016-11-03T10:47:05.442Z,74.17
2016-11-03T10:48:14.173Z,74.83
2016-11-03T10:49:22.872Z,75.4
2016-11-03T10:50:31.563Z,76.5
2016-11-03T10:51:40.264Z,77.72
2016-11-03T10:52:48.957Z,76.87
2016-11-03T10:53:57.659Z,76.21
2016-11-03T10:55:06.358Z,76.02
2016-11-03T10:56:15.049Z,76.4
2016-11-03T10:57:23.768Z,76.31
2016-11-03T10:58:32.468Z,77.34
2016-11-03T10:59:41.164Z,78.1
2016-11-03T11:00:49.857Z,78.01
2016-11-03T11:01:58.553Z,78.2
2016-11-03T11:03:07.242Z,78.67
2016-11-03T11:04:15.939Z,78.39
2016-11-03T11:05:24.636Z,77.72
2016-11-03T11:06:33.332Z,77.15
2016-11-03T11:07:42.027Z,76.68
2016-11-03T11:08:50.795Z,76.4
2016-11-03T11:09:59.567Z,76.59
2016-11-03T11:11:08.261Z,76.02
2016-11-03T11:12:16.986Z,76.34
2016-11-03T11:13:25.717Z,76.12
2016-11-03T11:14:34.418Z,76.12
2016-11-03T11:15:43.115Z,76.02
2016-11-03T11:16:51.813Z,76.68
2016-11-03T11:18:00.513Z,76.59
2016-11-03T11:19:09.220Z,76.78
2016-11-03T11:20:17.954Z,77.15
2016-11-03T11:21:26.650Z,77.25
2016-11-03T11:22:35.343Z,77.34
2016-11-03T11:23:44.041Z,77.91
2016-11-03T11:24:52.737Z,77.82
2016-11-03T11:26:01.432Z,77.72
2016-11-03T11:27:10.126Z,78.1
2016-11-03T11:28:18.826Z,78.1
2016-11-03T11:29:27.520Z,78.2
2016-11-03T11:30:36.223Z,78.95
2016-11-03T11:31:44.915Z,79.05
2016-11-03T11:32:53.612Z,79.43
2016-11-03T11:34:02.307Z,79.05
2016-11-03T11:35:11.049Z,79.05
2016-11-03T11:36:19.745Z,78.95
2016-11-03T11:37:28.441Z,78.39
2016-11-03T11:38:37.139Z,78.29
2016-11-03T11:39:45.835Z,78.29
2016-11-03T11:40:54.969Z,78.58
2016-11-03T11:42:04.271Z,78.48
2016-11-03T11:43:12.964Z,77.91
2016-11-03T11:44:21.675Z,78.1
2016-11-03T11:45:30.368Z,77.82
2016-11-03T11:46:39.063Z,77.06
2016-11-03T11:47:47.768Z,77.34
2016-11-03T11:48:56.460Z,77.44
2016-11-03T11:50:05.166Z,77.82
2016-11-03T11:51:13.897Z,77.44
2016-11-03T11:52:22.591Z,77.82
2016-11-03T11:53:31.282Z,77.44
2016-11-03T11:54:40.013Z,76.97
2016-11-03T11:55:48.709Z,76.5
2016-11-03T11:56:57.405Z,76.02
2016-11-03T11:58:06.095Z,75.74
2016-11-03T11:59:14.839Z,75.07
2016-11-03T12:00:23.526Z,74.88
2016-11-03T12:01:32.229Z,75.31
2016-11-03T12:02:40.933Z,74.26
2016-11-03T12:03:49.625Z,73.98
2016-11-03T12:04:58.317Z,74.55
2016-11-03T12:06:07.012Z,74.93
2016-11-03T12:07:15.749Z,74.17
2016-11-03T12:08:24.444Z,73.88
2016-11-03T12:09:33.141Z,73.5
2016-11-03T12:10:41.845Z,73.6
2016-11-03T12:11:50.549Z,72.56
2016-11-03T12:12:59.246Z,73.22
2016-11-03T12:14:07.943Z,72.18
2016-11-03T12:15:16.643Z,71.27
2016-11-03T12:16:25.340Z,70.79
2016-11-03T12:17:34.033Z,69.41
2016-11-03T12:18:42.801Z,68.65
2016-11-03T12:19:51.504Z,67.8
2016-11-03T12:21:00.206Z,68.46
2016-11-03T12:22:08.908Z,68.65
2016-11-03T12:23:17.605Z,67.8
2016-11-03T12:24:26.306Z,67.52
2016-11-03T12:25:35.008Z,67.33
2016-11-03T12:26:43.715Z,66.32
2016-11-03T12:27:52.411Z,66.41
2016-11-03T12:29:01.156Z,66.57
2016-11-03T12:30:09.853Z,66.86
2016-11-03T12:31:18.547Z,67.61
2016-11-03T12:32:27.280Z,66.95
2016-11-03T12:33:35.980Z,67.24
2016-11-03T12:34:44.677Z,66.86
2016-11-03T12:35:53.375Z,67.05
2016-11-03T12:37:02.075Z,67.52
2016-11-03T12:38:10.785Z,67.14
2016-11-03T12:39:19.532Z,64.71
2016-11-03T12:40:28.227Z,63.42
2016-11-03T12:41:36.920Z,62.37
2016-11-03T12:42:45.615Z,61.27
2016-11-03T12:43:54.316Z,60.79
2016-11-03T12:45:03.013Z,59.66
2016-11-03T12:46:11.741Z,60.22
2016-11-03T12:47:20.444Z,60.03
2016-11-03T12:48:29.170Z,59.56
2016-11-03T12:49:37.869Z,60.03
2016-11-03T12:50:46.565Z,60.31
2016-11-03T12:51:55.262Z,60.41
2016-11-03T12:53:03.988Z,61.52
2016-11-03T12:54:12.689Z,62.85
2016-11-03T12:55:21.389Z,63.7
2016-11-03T12:56:30.089Z,63.32
2016-11-03T12:57:38.786Z,63.6
2016-11-03T12:58:47.489Z,63.6
2016-11-03T12:59:56.185Z,63.13
2016-11-03T13:01:04.982Z,62.56
2016-11-03T13:02:13.719Z,62.85
2016-11-03T13:03:22.423Z,63.7
2016-11-03T13:04:31.161Z,64.81
2016-11-03T13:05:39.865Z,65.28
2016-11-03T13:06:48.570Z,66.76
2016-11-03T13:07:57.263Z,67.8
2016-11-03T13:09:06.001Z,68.37
2016-11-03T13:10:14.745Z,69.41
2016-11-03T13:11:23.440Z,69.47
2016-11-03T13:12:32.146Z,69.57
2016-11-03T13:13:40.849Z,70.42
2016-11-03T13:14:49.550Z,70.23
2016-11-03T13:15:58.257Z,70.98
2016-11-03T13:17:07.285Z,70.61
2016-11-03T13:18:15.985Z,70.17
2016-11-03T13:19:24.709Z,70.7
2016-11-03T13:20:33.419Z,71.17
2016-11-03T13:21:42.130Z,70.7
2016-11-03T13:22:50.831Z,70.83
2016-11-03T13:23:59.589Z,70.61
2016-11-03T13:25:08.321Z,71.08
2016-11-03T13:26:17.021Z,70.04
2016-11-03T13:27:25.753Z,67.9
2016-11-03T13:28:34.452Z,66.32
2016-11-03T13:29:43.151Z,66.22
2016-11-03T13:30:52.157Z,67.55
2016-11-03T13:32:00.860Z,68.84
2016-11-03T13:33:09.568Z,68.27
2016-11-03T13:34:18.581Z,68.75
2016-11-03T13:35:27.289Z,68.08
2016-11-03T13:36:35.997Z,67.08
2016-11-03T13:37:44.700Z,67.36
2016-11-03T13:38:53.397Z,69.22
2016-11-03T13:40:02.097Z,70.32
2016-11-03T13:41:10.794Z,67.8
2016-11-03T13:42:19.498Z,64.55
2016-11-03T13:43:28.204Z,62.4
2016-11-03T13:44:36.907Z,61.36
2016-11-03T13:45:45.611Z,61.55
2016-11-03T13:46:54.620Z,63.89
2016-11-03T13:48:03.358Z,65.28
2016-11-03T13:49:12.368Z,67.55
2016-11-03T13:50:21.072Z,69.32
2016-11-03T13:51:29.767Z,71.36
2016-11-03T13:52:38.474Z,73.26
2016-11-03T13:53:47.170Z,74.83
2016-11-03T13:54:55.874Z,75.96
2016-11-03T13:56:04.571Z,76.82
2016-11-03T13:57:13.264Z,78.29
2016-11-03T13:58:21.964Z,78.29
2016-11-03T13:59:30.658Z,79.14
2016-11-03T14:00:39.353Z,80.08
2016-11-03T14:01:48.053Z,80.08
2016-11-03T14:02:56.744Z,81.27
2016-11-03T14:04:05.439Z,81.46
2016-11-03T14:05:14.146Z,82.31
2016-11-03T14:06:22.837Z,81.84
2016-11-03T14:07:31.535Z,83.07
2016-11-03T14:08:40.235Z,82.88
2016-11-03T14:09:48.934Z,83.36
2016-11-03T14:10:57.664Z,83.73
2016-11-03T14:12:06.358Z,84.11
2016-11-03T14:13:15.061Z,84.39
2016-11-03T14:14:23.756Z,85.24
2016-11-03T14:15:32.451Z,84.86
2016-11-03T14:16:41.157Z,85.15
2016-11-03T14:17:49.925Z,84.2
2016-11-03T14:18:58.626Z,84.35
2016-11-03T14:20:07.351Z,85.2
2016-11-03T14:21:16.053Z,85.11
2016-11-03T14:22:24.749Z,85.49
2016-11-03T14:23:33.482Z,85.77
2016-11-03T14:24:42.185Z,85.86
2016-11-03T14:25:50.880Z,86.62
2016-11-03T14:26:59.581Z,87.18
2016-11-03T14:28:08.280Z,86.9
2016-11-03T14:29:17.298Z,86.52
2016-11-03T14:30:25.995Z,87.09
2016-11-03T14:31:34.692Z,87.37
2016-11-03T14:32:43.396Z,87.47
2016-11-03T14:33:52.127Z,87.37
2016-11-03T14:35:00.852Z,88.09
2016-11-03T14:36:09.990Z,88.93
2016-11-03T14:37:19.414Z,88.65
2016-11-03T14:38:29.125Z,88.65
2016-11-03T14:39:38.174Z,88.37
2016-11-03T14:40:47.271Z,88.56
2016-11-03T14:41:56.489Z,89.03
2016-11-03T14:43:05.539Z,89.31
2016-11-03T14:44:14.299Z,88.84
2016-11-03T14:45:23.011Z,89.59
2016-11-03T14:46:31.709Z,89.22